sensor_id;sensor_type;location;lat;lon;timestamp;P1;durP1;ratioP1;P2;durP2;ratioP2
8139;SDS011;4111;50.972;7.072;2023-08-31T00:02:23;7.97;;;4.43;;
8139;SDS011;4111;50.972;7.072;2023-08-31T00:04:53;9.27;;;4.03;;
8139;SDS011;4111;50.972;7.072;2023-08-31T00:07:21;5.63;;;4.30;;
8139;SDS011;4111;50.972;7.072;2023-08-31T00:09:47;8.03;;;3.80;;
8139;SDS011;4111;50.972;7.072;2023-08-31T00:12:14;5.97;;;4.23;;
8139;SDS011;4111;50.972;7.072;2023-08-31T00:14:40;5.70;;;4.33;;
8139;SDS011;4111;50.972;7.072;2023-08-31T00:17:06;5.90;;;4.23;;
8139;SDS011;4111;50.972;7.072;2023-08-31T00:19:33;5.30;;;3.97;;
8139;SDS011;4111;50.972;7.072;2023-08-31T00:22:00;11.27;;;4.23;;
8139;SDS011;4111;50.972;7.072;2023-08-31T00:24:26;7.37;;;4.50;;
8139;SDS011;4111;50.972;7.072;2023-08-31T00:26:57;5.67;;;3.90;;
8139;SDS011;4111;50.972;7.072;2023-08-31T00:29:24;7.17;;;4.60;;
8139;SDS011;4111;50.972;7.072;2023-08-31T00:31:51;9.73;;;4.53;;
8139;SDS011;4111;50.972;7.072;2023-08-31T00:34:19;6.10;;;4.00;;
8139;SDS011;4111;50.972;7.072;2023-08-31T00:36:46;7.23;;;4.03;;
8139;SDS011;4111;50.972;7.072;2023-08-31T00:39:12;4.00;;;3.60;;
8139;SDS011;4111;50.972;7.072;2023-08-31T00:41:38;5.93;;;3.97;;
8139;SDS011;4111;50.972;7.072;2023-08-31T00:44:05;5.23;;;3.90;;
8139;SDS011;4111;50.972;7.072;2023-08-31T00:46:31;8.90;;;4.17;;
8139;SDS011;4111;50.972;7.072;2023-08-31T00:48:59;6.27;;;4.13;;
8139;SDS011;4111;50.972;7.072;2023-08-31T00:51:25;8.33;;;4.33;;
8139;SDS011;4111;50.972;7.072;2023-08-31T00:53:52;8.73;;;4.77;;
8139;SDS011;4111;50.972;7.072;2023-08-31T00:56:21;12.90;;;5.27;;
8139;SDS011;4111;50.972;7.072;2023-08-31T00:58:48;8.57;;;4.33;;
8139;SDS011;4111;50.972;7.072;2023-08-31T01:01:20;5.63;;;4.40;;
8139;SDS011;4111;50.972;7.072;2023-08-31T01:09:05;6.07;;;4.20;;
8139;SDS011;4111;50.972;7.072;2023-08-31T01:11:47;6.13;;;4.90;;
8139;SDS011;4111;50.972;7.072;2023-08-31T01:14:27;9.07;;;4.57;;
8139;SDS011;4111;50.972;7.072;2023-08-31T01:17:00;9.30;;;4.67;;
8139;SDS011;4111;50.972;7.072;2023-08-31T01:22:18;6.83;;;4.77;;
8139;SDS011;4111;50.972;7.072;2023-08-31T01:24:53;7.93;;;4.60;;
8139;SDS011;4111;50.972;7.072;2023-08-31T01:27:20;7.20;;;4.67;;
8139;SDS011;4111;50.972;7.072;2023-08-31T01:29:47;4.87;;;4.47;;
8139;SDS011;4111;50.972;7.072;2023-08-31T01:32:14;8.73;;;5.27;;
8139;SDS011;4111;50.972;7.072;2023-08-31T01:34:40;6.87;;;4.63;;
8139;SDS011;4111;50.972;7.072;2023-08-31T01:37:14;6.73;;;4.47;;
8139;SDS011;4111;50.972;7.072;2023-08-31T01:39:52;5.93;;;5.17;;
8139;SDS011;4111;50.972;7.072;2023-08-31T01:42:25;9.47;;;4.93;;
8139;SDS011;4111;50.972;7.072;2023-08-31T01:44:53;12.73;;;5.30;;
8139;SDS011;4111;50.972;7.072;2023-08-31T01:47:23;6.03;;;5.03;;
8139;SDS011;4111;50.972;7.072;2023-08-31T01:49:50;7.83;;;5.30;;
8139;SDS011;4111;50.972;7.072;2023-08-31T01:52:16;5.80;;;4.57;;
8139;SDS011;4111;50.972;7.072;2023-08-31T01:54:43;5.30;;;4.47;;
8139;SDS011;4111;50.972;7.072;2023-08-31T01:57:09;7.83;;;4.17;;
8139;SDS011;4111;50.972;7.072;2023-08-31T01:59:36;8.03;;;4.57;;
8139;SDS011;4111;50.972;7.072;2023-08-31T02:02:02;7.73;;;5.00;;
8139;SDS011;4111;50.972;7.072;2023-08-31T02:04:30;8.20;;;5.20;;
8139;SDS011;4111;50.972;7.072;2023-08-31T02:06:57;10.53;;;4.87;;
8139;SDS011;4111;50.972;7.072;2023-08-31T02:09:23;5.03;;;4.23;;
8139;SDS011;4111;50.972;7.072;2023-08-31T02:11:49;6.27;;;4.23;;
8139;SDS011;4111;50.972;7.072;2023-08-31T02:14:16;4.60;;;4.00;;
8139;SDS011;4111;50.972;7.072;2023-08-31T02:16:43;7.07;;;4.20;;
8139;SDS011;4111;50.972;7.072;2023-08-31T02:19:09;6.57;;;4.10;;
8139;SDS011;4111;50.972;7.072;2023-08-31T02:21:36;7.67;;;4.87;;
8139;SDS011;4111;50.972;7.072;2023-08-31T02:24:02;9.83;;;4.73;;
8139;SDS011;4111;50.972;7.072;2023-08-31T02:26:29;6.23;;;4.47;;
8139;SDS011;4111;50.972;7.072;2023-08-31T02:28:55;5.73;;;4.20;;
8139;SDS011;4111;50.972;7.072;2023-08-31T02:31:22;7.17;;;4.73;;
8139;SDS011;4111;50.972;7.072;2023-08-31T02:33:48;5.43;;;4.40;;
8139;SDS011;4111;50.972;7.072;2023-08-31T02:36:16;8.40;;;4.20;;
8139;SDS011;4111;50.972;7.072;2023-08-31T02:38:43;8.10;;;4.20;;
8139;SDS011;4111;50.972;7.072;2023-08-31T02:41:09;7.03;;;4.13;;
8139;SDS011;4111;50.972;7.072;2023-08-31T02:43:35;7.90;;;4.57;;
8139;SDS011;4111;50.972;7.072;2023-08-31T02:46:02;7.67;;;4.30;;
8139;SDS011;4111;50.972;7.072;2023-08-31T02:48:29;7.90;;;4.03;;
8139;SDS011;4111;50.972;7.072;2023-08-31T02:50:57;8.77;;;4.60;;
8139;SDS011;4111;50.972;7.072;2023-08-31T02:53:27;4.83;;;4.37;;
8139;SDS011;4111;50.972;7.072;2023-08-31T02:55:53;6.33;;;3.80;;
8139;SDS011;4111;50.972;7.072;2023-08-31T02:58:20;5.80;;;3.83;;
8139;SDS011;4111;50.972;7.072;2023-08-31T03:00:46;6.23;;;4.17;;
8139;SDS011;4111;50.972;7.072;2023-08-31T03:03:15;10.53;;;3.93;;
8139;SDS011;4111;50.972;7.072;2023-08-31T03:05:42;8.80;;;4.03;;
8139;SDS011;4111;50.972;7.072;2023-08-31T03:08:09;4.17;;;3.73;;
8139;SDS011;4111;50.972;7.072;2023-08-31T03:10:36;6.20;;;4.30;;
8139;SDS011;4111;50.972;7.072;2023-08-31T03:13:03;5.17;;;4.17;;
8139;SDS011;4111;50.972;7.072;2023-08-31T03:15:32;4.30;;;3.70;;
8139;SDS011;4111;50.972;7.072;2023-08-31T03:18:00;4.60;;;4.00;;
8139;SDS011;4111;50.972;7.072;2023-08-31T03:20:26;9.33;;;4.07;;
8139;SDS011;4111;50.972;7.072;2023-08-31T03:22:53;7.53;;;4.37;;
8139;SDS011;4111;50.972;7.072;2023-08-31T03:25:19;4.90;;;3.87;;
8139;SDS011;4111;50.972;7.072;2023-08-31T03:27:46;7.33;;;3.97;;
8139;SDS011;4111;50.972;7.072;2023-08-31T03:30:12;6.80;;;4.07;;
8139;SDS011;4111;50.972;7.072;2023-08-31T03:32:39;4.40;;;3.90;;
8139;SDS011;4111;50.972;7.072;2023-08-31T03:35:05;4.90;;;3.93;;
8139;SDS011;4111;50.972;7.072;2023-08-31T03:37:33;4.00;;;3.60;;
8139;SDS011;4111;50.972;7.072;2023-08-31T03:39:59;4.20;;;3.80;;
8139;SDS011;4111;50.972;7.072;2023-08-31T03:42:26;7.90;;;3.90;;
8139;SDS011;4111;50.972;7.072;2023-08-31T03:44:52;5.27;;;3.77;;
8139;SDS011;4111;50.972;7.072;2023-08-31T03:47:19;6.37;;;3.83;;
8139;SDS011;4111;50.972;7.072;2023-08-31T03:49:45;9.33;;;4.57;;
8139;SDS011;4111;50.972;7.072;2023-08-31T03:52:11;8.10;;;4.00;;
8139;SDS011;4111;50.972;7.072;2023-08-31T03:54:38;5.23;;;3.50;;
8139;SDS011;4111;50.972;7.072;2023-08-31T03:57:04;5.47;;;4.27;;
8139;SDS011;4111;50.972;7.072;2023-08-31T03:59:31;4.27;;;3.87;;
8139;SDS011;4111;50.972;7.072;2023-08-31T04:01:57;6.87;;;3.93;;
8139;SDS011;4111;50.972;7.072;2023-08-31T04:04:24;4.80;;;3.60;;
8139;SDS011;4111;50.972;7.072;2023-08-31T04:06:50;4.87;;;4.00;;
8139;SDS011;4111;50.972;7.072;2023-08-31T04:09:17;6.20;;;4.30;;
8139;SDS011;4111;50.972;7.072;2023-08-31T04:11:43;4.40;;;4.00;;
8139;SDS011;4111;50.972;7.072;2023-08-31T04:14:10;4.30;;;3.90;;
8139;SDS011;4111;50.972;7.072;2023-08-31T04:16:36;6.67;;;4.00;;
8139;SDS011;4111;50.972;7.072;2023-08-31T04:19:02;4.53;;;3.97;;
8139;SDS011;4111;50.972;7.072;2023-08-31T04:21:30;7.67;;;4.27;;
8139;SDS011;4111;50.972;7.072;2023-08-31T04:23:56;4.30;;;3.97;;
8139;SDS011;4111;50.972;7.072;2023-08-31T04:26:25;5.47;;;3.83;;
8139;SDS011;4111;50.972;7.072;2023-08-31T04:28:52;4.60;;;4.00;;
8139;SDS011;4111;50.972;7.072;2023-08-31T04:31:18;5.73;;;4.70;;
8139;SDS011;4111;50.972;7.072;2023-08-31T04:33:45;5.00;;;4.50;;
8139;SDS011;4111;50.972;7.072;2023-08-31T04:36:11;5.20;;;4.03;;
8139;SDS011;4111;50.972;7.072;2023-08-31T04:38:38;5.80;;;4.00;;
8139;SDS011;4111;50.972;7.072;2023-08-31T04:41:04;7.83;;;3.73;;
8139;SDS011;4111;50.972;7.072;2023-08-31T04:43:31;8.37;;;4.17;;
8139;SDS011;4111;50.972;7.072;2023-08-31T04:45:57;5.70;;;4.03;;
8139;SDS011;4111;50.972;7.072;2023-08-31T04:48:24;6.80;;;3.60;;
8139;SDS011;4111;50.972;7.072;2023-08-31T04:50:56;6.67;;;4.17;;
8139;SDS011;4111;50.972;7.072;2023-08-31T04:53:24;5.57;;;3.90;;
8139;SDS011;4111;50.972;7.072;2023-08-31T04:55:50;5.43;;;4.47;;
8139;SDS011;4111;50.972;7.072;2023-08-31T04:58:17;7.50;;;4.43;;
8139;SDS011;4111;50.972;7.072;2023-08-31T05:00:43;8.00;;;4.33;;
8139;SDS011;4111;50.972;7.072;2023-08-31T05:03:10;13.43;;;4.60;;
8139;SDS011;4111;50.972;7.072;2023-08-31T05:05:37;6.13;;;4.03;;
8139;SDS011;4111;50.972;7.072;2023-08-31T05:08:04;7.00;;;4.13;;
8139;SDS011;4111;50.972;7.072;2023-08-31T05:10:31;5.70;;;4.40;;
8139;SDS011;4111;50.972;7.072;2023-08-31T05:12:57;9.03;;;4.60;;
8139;SDS011;4111;50.972;7.072;2023-08-31T05:15:24;7.43;;;4.73;;
8139;SDS011;4111;50.972;7.072;2023-08-31T05:17:53;7.93;;;4.67;;
8139;SDS011;4111;50.972;7.072;2023-08-31T05:20:20;7.50;;;4.43;;
8139;SDS011;4111;50.972;7.072;2023-08-31T05:22:49;5.80;;;4.20;;
8139;SDS011;4111;50.972;7.072;2023-08-31T05:25:16;6.57;;;4.17;;
8139;SDS011;4111;50.972;7.072;2023-08-31T05:27:42;5.57;;;3.83;;
8139;SDS011;4111;50.972;7.072;2023-08-31T05:30:09;3.93;;;3.47;;
8139;SDS011;4111;50.972;7.072;2023-08-31T05:32:35;7.03;;;4.17;;
8139;SDS011;4111;50.972;7.072;2023-08-31T05:35:02;6.93;;;3.90;;
8139;SDS011;4111;50.972;7.072;2023-08-31T05:37:33;5.33;;;3.93;;
8139;SDS011;4111;50.972;7.072;2023-08-31T05:40:00;4.90;;;3.37;;
8139;SDS011;4111;50.972;7.072;2023-08-31T05:42:27;5.53;;;3.47;;
8139;SDS011;4111;50.972;7.072;2023-08-31T05:44:53;4.83;;;3.97;;
8139;SDS011;4111;50.972;7.072;2023-08-31T05:47:19;4.90;;;3.40;;
8139;SDS011;4111;50.972;7.072;2023-08-31T05:49:46;4.30;;;3.70;;
8139;SDS011;4111;50.972;7.072;2023-08-31T05:52:12;9.70;;;3.80;;
8139;SDS011;4111;50.972;7.072;2023-08-31T05:54:39;6.13;;;4.03;;
8139;SDS011;4111;50.972;7.072;2023-08-31T05:57:05;6.30;;;4.10;;
8139;SDS011;4111;50.972;7.072;2023-08-31T05:59:32;5.00;;;4.17;;
8139;SDS011;4111;50.972;7.072;2023-08-31T06:01:58;8.63;;;5.30;;
8139;SDS011;4111;50.972;7.072;2023-08-31T06:04:24;4.33;;;4.03;;
8139;SDS011;4111;50.972;7.072;2023-08-31T06:06:51;7.57;;;4.43;;
8139;SDS011;4111;50.972;7.072;2023-08-31T06:09:19;6.93;;;4.50;;
8139;SDS011;4111;50.972;7.072;2023-08-31T06:11:46;4.77;;;4.23;;
8139;SDS011;4111;50.972;7.072;2023-08-31T06:14:13;6.60;;;4.73;;
8139;SDS011;4111;50.972;7.072;2023-08-31T06:16:39;4.77;;;4.27;;
8139;SDS011;4111;50.972;7.072;2023-08-31T06:19:05;5.93;;;4.53;;
8139;SDS011;4111;50.972;7.072;2023-08-31T06:21:32;6.67;;;4.80;;
8139;SDS011;4111;50.972;7.072;2023-08-31T06:23:58;5.47;;;4.37;;
8139;SDS011;4111;50.972;7.072;2023-08-31T06:26:24;5.80;;;4.50;;
8139;SDS011;4111;50.972;7.072;2023-08-31T06:28:51;4.70;;;4.17;;
8139;SDS011;4111;50.972;7.072;2023-08-31T06:31:18;7.10;;;4.17;;
8139;SDS011;4111;50.972;7.072;2023-08-31T06:33:45;4.90;;;3.90;;
8139;SDS011;4111;50.972;7.072;2023-08-31T06:36:11;6.87;;;3.97;;
8139;SDS011;4111;50.972;7.072;2023-08-31T06:38:38;3.80;;;3.50;;
8139;SDS011;4111;50.972;7.072;2023-08-31T06:41:04;6.87;;;3.43;;
8139;SDS011;4111;50.972;7.072;2023-08-31T06:43:31;5.57;;;3.70;;
8139;SDS011;4111;50.972;7.072;2023-08-31T06:45:57;11.10;;;4.23;;
8139;SDS011;4111;50.972;7.072;2023-08-31T06:48:44;6.87;;;3.80;;
8139;SDS011;4111;50.972;7.072;2023-08-31T06:51:10;5.20;;;3.30;;
8139;SDS011;4111;50.972;7.072;2023-08-31T06:53:36;4.90;;;3.37;;
8139;SDS011;4111;50.972;7.072;2023-08-31T06:56:03;9.87;;;3.70;;
8139;SDS011;4111;50.972;7.072;2023-08-31T06:58:30;7.00;;;3.30;;
8139;SDS011;4111;50.972;7.072;2023-08-31T07:00:56;7.37;;;3.17;;
8139;SDS011;4111;50.972;7.072;2023-08-31T07:03:22;10.03;;;3.30;;
8139;SDS011;4111;50.972;7.072;2023-08-31T07:05:52;5.37;;;3.77;;
8139;SDS011;4111;50.972;7.072;2023-08-31T07:08:19;5.70;;;3.33;;
8139;SDS011;4111;50.972;7.072;2023-08-31T07:10:45;10.13;;;3.40;;
8139;SDS011;4111;50.972;7.072;2023-08-31T07:13:13;5.30;;;3.20;;
8139;SDS011;4111;50.972;7.072;2023-08-31T07:15:40;5.57;;;2.90;;
8139;SDS011;4111;50.972;7.072;2023-08-31T07:18:06;5.00;;;2.67;;
8139;SDS011;4111;50.972;7.072;2023-08-31T07:20:34;9.80;;;3.07;;
8139;SDS011;4111;50.972;7.072;2023-08-31T07:23:00;6.20;;;2.20;;
8139;SDS011;4111;50.972;7.072;2023-08-31T07:25:27;4.83;;;2.40;;
8139;SDS011;4111;50.972;7.072;2023-08-31T07:27:54;4.57;;;2.67;;
8139;SDS011;4111;50.972;7.072;2023-08-31T07:30:21;5.40;;;2.50;;
8139;SDS011;4111;50.972;7.072;2023-08-31T07:32:47;7.67;;;2.47;;
8139;SDS011;4111;50.972;7.072;2023-08-31T07:35:14;4.00;;;2.10;;
8139;SDS011;4111;50.972;7.072;2023-08-31T07:37:40;7.67;;;2.70;;
8139;SDS011;4111;50.972;7.072;2023-08-31T07:40:07;5.60;;;2.53;;
8139;SDS011;4111;50.972;7.072;2023-08-31T07:42:36;3.83;;;1.90;;
8139;SDS011;4111;50.972;7.072;2023-08-31T07:45:02;4.87;;;2.60;;
8139;SDS011;4111;50.972;7.072;2023-08-31T07:47:29;4.37;;;2.10;;
8139;SDS011;4111;50.972;7.072;2023-08-31T07:49:58;5.90;;;2.27;;
8139;SDS011;4111;50.972;7.072;2023-08-31T07:52:24;8.47;;;2.40;;
8139;SDS011;4111;50.972;7.072;2023-08-31T07:54:50;6.17;;;2.40;;
8139;SDS011;4111;50.972;7.072;2023-08-31T07:57:17;5.47;;;2.30;;
8139;SDS011;4111;50.972;7.072;2023-08-31T07:59:43;4.83;;;2.57;;
8139;SDS011;4111;50.972;7.072;2023-08-31T08:02:10;4.00;;;2.30;;
8139;SDS011;4111;50.972;7.072;2023-08-31T08:04:36;5.20;;;2.30;;
8139;SDS011;4111;50.972;7.072;2023-08-31T08:07:03;3.30;;;2.03;;
8139;SDS011;4111;50.972;7.072;2023-08-31T08:09:29;5.93;;;1.97;;
8139;SDS011;4111;50.972;7.072;2023-08-31T08:11:56;3.57;;;2.23;;
8139;SDS011;4111;50.972;7.072;2023-08-31T08:14:22;2.50;;;1.80;;
8139;SDS011;4111;50.972;7.072;2023-08-31T08:16:49;3.77;;;1.90;;
8139;SDS011;4111;50.972;7.072;2023-08-31T08:19:20;6.20;;;2.03;;
8139;SDS011;4111;50.972;7.072;2023-08-31T08:21:48;6.53;;;2.27;;
8139;SDS011;4111;50.972;7.072;2023-08-31T08:24:14;4.50;;;1.87;;
8139;SDS011;4111;50.972;7.072;2023-08-31T08:26:41;5.03;;;2.10;;
8139;SDS011;4111;50.972;7.072;2023-08-31T08:29:07;4.33;;;2.00;;
8139;SDS011;4111;50.972;7.072;2023-08-31T08:31:34;9.90;;;4.00;;
8139;SDS011;4111;50.972;7.072;2023-08-31T08:34:01;5.37;;;2.33;;
8139;SDS011;4111;50.972;7.072;2023-08-31T08:36:27;6.57;;;2.47;;
8139;SDS011;4111;50.972;7.072;2023-08-31T08:38:53;6.00;;;1.90;;
8139;SDS011;4111;50.972;7.072;2023-08-31T08:41:22;4.13;;;1.90;;
8139;SDS011;4111;50.972;7.072;2023-08-31T08:43:50;1.93;;;1.60;;
8139;SDS011;4111;50.972;7.072;2023-08-31T08:46:18;3.03;;;2.03;;
8139;SDS011;4111;50.972;7.072;2023-08-31T08:48:45;4.07;;;2.17;;
8139;SDS011;4111;50.972;7.072;2023-08-31T08:51:13;4.03;;;1.73;;
8139;SDS011;4111;50.972;7.072;2023-08-31T08:53:42;4.60;;;2.43;;
8139;SDS011;4111;50.972;7.072;2023-08-31T08:56:10;4.57;;;2.20;;
8139;SDS011;4111;50.972;7.072;2023-08-31T08:58:36;3.43;;;2.00;;
8139;SDS011;4111;50.972;7.072;2023-08-31T09:01:03;2.77;;;1.90;;
8139;SDS011;4111;50.972;7.072;2023-08-31T09:03:31;4.17;;;2.00;;
8139;SDS011;4111;50.972;7.072;2023-08-31T09:05:59;4.70;;;2.13;;
8139;SDS011;4111;50.972;7.072;2023-08-31T09:08:27;3.07;;;1.80;;
8139;SDS011;4111;50.972;7.072;2023-08-31T09:10:55;5.10;;;2.20;;
8139;SDS011;4111;50.972;7.072;2023-08-31T09:13:26;4.00;;;2.10;;
8139;SDS011;4111;50.972;7.072;2023-08-31T09:15:55;2.87;;;1.90;;
8139;SDS011;4111;50.972;7.072;2023-08-31T09:18:24;4.57;;;2.10;;
8139;SDS011;4111;50.972;7.072;2023-08-31T09:20:54;5.67;;;1.93;;
8139;SDS011;4111;50.972;7.072;2023-08-31T09:23:25;5.00;;;2.10;;
8139;SDS011;4111;50.972;7.072;2023-08-31T09:25:52;3.77;;;1.70;;
8139;SDS011;4111;50.972;7.072;2023-08-31T09:28:21;2.47;;;1.87;;
8139;SDS011;4111;50.972;7.072;2023-08-31T09:30:49;5.73;;;2.40;;
8139;SDS011;4111;50.972;7.072;2023-08-31T09:33:18;3.43;;;1.83;;
8139;SDS011;4111;50.972;7.072;2023-08-31T09:35:49;3.83;;;2.00;;
8139;SDS011;4111;50.972;7.072;2023-08-31T09:38:17;2.87;;;1.80;;
8139;SDS011;4111;50.972;7.072;2023-08-31T09:40:44;7.23;;;2.00;;
8139;SDS011;4111;50.972;7.072;2023-08-31T09:43:12;4.40;;;1.83;;
8139;SDS011;4111;50.972;7.072;2023-08-31T09:45:44;2.30;;;1.60;;
8139;SDS011;4111;50.972;7.072;2023-08-31T09:48:12;4.67;;;1.97;;
8139;SDS011;4111;50.972;7.072;2023-08-31T09:50:40;3.63;;;1.80;;
8139;SDS011;4111;50.972;7.072;2023-08-31T09:53:09;5.70;;;2.00;;
8139;SDS011;4111;50.972;7.072;2023-08-31T09:55:38;4.30;;;1.80;;
8139;SDS011;4111;50.972;7.072;2023-08-31T09:58:06;3.23;;;1.63;;
8139;SDS011;4111;50.972;7.072;2023-08-31T10:00:42;5.53;;;2.00;;
8139;SDS011;4111;50.972;7.072;2023-08-31T10:03:09;2.53;;;1.73;;
8139;SDS011;4111;50.972;7.072;2023-08-31T10:05:45;3.07;;;1.90;;
8139;SDS011;4111;50.972;7.072;2023-08-31T10:08:13;3.80;;;1.93;;
8139;SDS011;4111;50.972;7.072;2023-08-31T10:10:42;3.70;;;1.80;;
8139;SDS011;4111;50.972;7.072;2023-08-31T10:13:09;3.77;;;1.70;;
8139;SDS011;4111;50.972;7.072;2023-08-31T10:15:37;1.90;;;1.60;;
8139;SDS011;4111;50.972;7.072;2023-08-31T10:18:04;2.53;;;1.43;;
8139;SDS011;4111;50.972;7.072;2023-08-31T10:20:32;2.77;;;1.53;;
8139;SDS011;4111;50.972;7.072;2023-08-31T10:23:06;6.27;;;1.90;;
8139;SDS011;4111;50.972;7.072;2023-08-31T10:28:18;4.40;;;1.83;;
8139;SDS011;4111;50.972;7.072;2023-08-31T10:31:05;7.40;;;1.60;;
8139;SDS011;4111;50.972;7.072;2023-08-31T10:33:33;2.43;;;1.80;;
8139;SDS011;4111;50.972;7.072;2023-08-31T10:36:01;2.67;;;1.57;;
8139;SDS011;4111;50.972;7.072;2023-08-31T10:38:28;3.37;;;1.80;;
8139;SDS011;4111;50.972;7.072;2023-08-31T10:41:00;2.63;;;1.60;;
8139;SDS011;4111;50.972;7.072;2023-08-31T10:43:51;3.43;;;1.60;;
8139;SDS011;4111;50.972;7.072;2023-08-31T10:49:12;2.10;;;1.63;;
8139;SDS011;4111;50.972;7.072;2023-08-31T10:59:53;2.07;;;1.60;;
8139;SDS011;4111;50.972;7.072;2023-08-31T11:02:30;2.67;;;1.23;;
8139;SDS011;4111;50.972;7.072;2023-08-31T11:05:01;2.47;;;1.73;;
8139;SDS011;4111;50.972;7.072;2023-08-31T11:07:35;4.10;;;1.87;;
8139;SDS011;4111;50.972;7.072;2023-08-31T11:12:41;2.67;;;1.57;;
8139;SDS011;4111;50.972;7.072;2023-08-31T11:15:10;2.17;;;1.57;;
8139;SDS011;4111;50.972;7.072;2023-08-31T11:17:39;3.03;;;1.60;;
8139;SDS011;4111;50.972;7.072;2023-08-31T11:20:07;2.77;;;1.70;;
8139;SDS011;4111;50.972;7.072;2023-08-31T11:22:39;2.43;;;1.50;;
8139;SDS011;4111;50.972;7.072;2023-08-31T11:25:08;3.30;;;1.80;;
8139;SDS011;4111;50.972;7.072;2023-08-31T11:27:35;3.00;;;1.70;;
8139;SDS011;4111;50.972;7.072;2023-08-31T11:30:15;2.50;;;1.63;;
8139;SDS011;4111;50.972;7.072;2023-08-31T11:32:49;3.60;;;1.90;;
8139;SDS011;4111;50.972;7.072;2023-08-31T11:35:17;2.80;;;1.77;;
8139;SDS011;4111;50.972;7.072;2023-08-31T11:37:44;5.03;;;2.10;;
8139;SDS011;4111;50.972;7.072;2023-08-31T11:40:13;2.67;;;1.60;;
8139;SDS011;4111;50.972;7.072;2023-08-31T11:42:41;3.10;;;1.60;;
8139;SDS011;4111;50.972;7.072;2023-08-31T11:45:07;4.03;;;1.80;;
8139;SDS011;4111;50.972;7.072;2023-08-31T11:47:37;4.97;;;1.77;;
8139;SDS011;4111;50.972;7.072;2023-08-31T11:50:05;2.70;;;1.60;;
8139;SDS011;4111;50.972;7.072;2023-08-31T11:52:33;2.53;;;1.93;;
8139;SDS011;4111;50.972;7.072;2023-08-31T11:54:59;4.53;;;1.90;;
8139;SDS011;4111;50.972;7.072;2023-08-31T11:57:26;5.83;;;3.23;;
8139;SDS011;4111;50.972;7.072;2023-08-31T11:59:54;3.73;;;1.80;;
8139;SDS011;4111;50.972;7.072;2023-08-31T12:02:22;3.00;;;1.93;;
8139;SDS011;4111;50.972;7.072;2023-08-31T12:04:48;3.50;;;1.83;;
8139;SDS011;4111;50.972;7.072;2023-08-31T12:07:18;2.63;;;1.97;;
8139;SDS011;4111;50.972;7.072;2023-08-31T12:09:45;4.10;;;1.70;;
8139;SDS011;4111;50.972;7.072;2023-08-31T12:12:15;2.13;;;1.73;;
8139;SDS011;4111;50.972;7.072;2023-08-31T12:14:43;4.43;;;1.80;;
8139;SDS011;4111;50.972;7.072;2023-08-31T12:17:09;3.27;;;1.30;;
8139;SDS011;4111;50.972;7.072;2023-08-31T12:19:39;3.47;;;1.53;;
8139;SDS011;4111;50.972;7.072;2023-08-31T12:22:06;2.60;;;1.50;;
8139;SDS011;4111;50.972;7.072;2023-08-31T12:24:40;1.80;;;1.43;;
8139;SDS011;4111;50.972;7.072;2023-08-31T12:27:07;2.87;;;1.53;;
8139;SDS011;4111;50.972;7.072;2023-08-31T12:29:35;4.47;;;1.53;;
8139;SDS011;4111;50.972;7.072;2023-08-31T12:32:02;3.43;;;1.63;;
8139;SDS011;4111;50.972;7.072;2023-08-31T12:34:30;5.57;;;1.90;;
8139;SDS011;4111;50.972;7.072;2023-08-31T12:36:57;3.57;;;1.73;;
8139;SDS011;4111;50.972;7.072;2023-08-31T12:39:26;5.13;;;1.93;;
8139;SDS011;4111;50.972;7.072;2023-08-31T12:41:53;3.83;;;2.10;;
8139;SDS011;4111;50.972;7.072;2023-08-31T12:44:22;5.37;;;2.30;;
8139;SDS011;4111;50.972;7.072;2023-08-31T12:46:48;5.40;;;2.17;;
8139;SDS011;4111;50.972;7.072;2023-08-31T12:49:15;5.13;;;2.80;;
8139;SDS011;4111;50.972;7.072;2023-08-31T12:51:41;5.67;;;2.40;;
8139;SDS011;4111;50.972;7.072;2023-08-31T12:54:07;4.33;;;2.20;;
8139;SDS011;4111;50.972;7.072;2023-08-31T12:56:34;2.13;;;1.93;;
8139;SDS011;4111;50.972;7.072;2023-08-31T12:59:01;6.23;;;1.90;;
8139;SDS011;4111;50.972;7.072;2023-08-31T13:01:28;3.63;;;1.87;;
8139;SDS011;4111;50.972;7.072;2023-08-31T13:03:54;2.90;;;1.80;;
8139;SDS011;4111;50.972;7.072;2023-08-31T13:06:21;2.13;;;1.93;;
8139;SDS011;4111;50.972;7.072;2023-08-31T13:08:47;2.17;;;1.73;;
8139;SDS011;4111;50.972;7.072;2023-08-31T13:11:13;4.17;;;1.70;;
8139;SDS011;4111;50.972;7.072;2023-08-31T13:13:40;3.50;;;2.20;;
8139;SDS011;4111;50.972;7.072;2023-08-31T13:16:06;3.43;;;2.00;;
8139;SDS011;4111;50.972;7.072;2023-08-31T13:18:33;2.60;;;1.90;;
8139;SDS011;4111;50.972;7.072;2023-08-31T13:21:00;4.50;;;2.00;;
8139;SDS011;4111;50.972;7.072;2023-08-31T13:23:26;4.10;;;1.73;;
8139;SDS011;4111;50.972;7.072;2023-08-31T13:25:53;3.73;;;2.43;;
8139;SDS011;4111;50.972;7.072;2023-08-31T13:28:19;4.33;;;2.13;;
8139;SDS011;4111;50.972;7.072;2023-08-31T13:30:46;2.83;;;2.07;;
8139;SDS011;4111;50.972;7.072;2023-08-31T13:33:12;5.43;;;2.13;;
8139;SDS011;4111;50.972;7.072;2023-08-31T13:35:39;3.63;;;2.20;;
8139;SDS011;4111;50.972;7.072;2023-08-31T13:38:05;4.13;;;2.00;;
8139;SDS011;4111;50.972;7.072;2023-08-31T13:40:33;6.37;;;2.57;;
8139;SDS011;4111;50.972;7.072;2023-08-31T13:43:02;3.93;;;1.97;;
8139;SDS011;4111;50.972;7.072;2023-08-31T13:45:31;4.57;;;2.10;;
8139;SDS011;4111;50.972;7.072;2023-08-31T13:47:58;3.83;;;2.00;;
8139;SDS011;4111;50.972;7.072;2023-08-31T13:50:30;3.60;;;2.03;;
8139;SDS011;4111;50.972;7.072;2023-08-31T13:52:57;5.20;;;2.17;;
8139;SDS011;4111;50.972;7.072;2023-08-31T13:55:23;5.50;;;2.20;;
8139;SDS011;4111;50.972;7.072;2023-08-31T13:57:50;6.93;;;2.10;;
8139;SDS011;4111;50.972;7.072;2023-08-31T14:00:17;7.33;;;2.50;;
8139;SDS011;4111;50.972;7.072;2023-08-31T14:02:43;2.77;;;2.10;;
8139;SDS011;4111;50.972;7.072;2023-08-31T14:05:11;4.43;;;2.37;;
8139;SDS011;4111;50.972;7.072;2023-08-31T14:07:37;3.67;;;2.10;;
8139;SDS011;4111;50.972;7.072;2023-08-31T14:10:04;3.47;;;2.10;;
8139;SDS011;4111;50.972;7.072;2023-08-31T14:12:32;3.87;;;2.20;;
8139;SDS011;4111;50.972;7.072;2023-08-31T14:14:59;3.77;;;2.03;;
8139;SDS011;4111;50.972;7.072;2023-08-31T14:17:30;4.17;;;2.03;;
8139;SDS011;4111;50.972;7.072;2023-08-31T14:20:00;7.27;;;2.60;;
8139;SDS011;4111;50.972;7.072;2023-08-31T14:22:27;2.93;;;2.00;;
8139;SDS011;4111;50.972;7.072;2023-08-31T14:24:54;3.53;;;2.00;;
8139;SDS011;4111;50.972;7.072;2023-08-31T14:27:21;4.97;;;2.20;;
8139;SDS011;4111;50.972;7.072;2023-08-31T14:29:49;3.35;;;2.28;;
8139;SDS011;4111;50.972;7.072;2023-08-31T14:32:15;2.35;;;2.15;;
8139;SDS011;4111;50.972;7.072;2023-08-31T14:34:42;2.60;;;1.98;;
8139;SDS011;4111;50.972;7.072;2023-08-31T14:37:09;4.10;;;2.10;;
8139;SDS011;4111;50.972;7.072;2023-08-31T14:39:35;3.97;;;2.30;;
8139;SDS011;4111;50.972;7.072;2023-08-31T14:42:01;3.65;;;2.45;;
8139;SDS011;4111;50.972;7.072;2023-08-31T14:44:29;2.50;;;1.90;;
8139;SDS011;4111;50.972;7.072;2023-08-31T14:46:55;3.65;;;2.47;;
8139;SDS011;4111;50.972;7.072;2023-08-31T14:49:22;4.10;;;2.10;;
8139;SDS011;4111;50.972;7.072;2023-08-31T14:51:51;4.65;;;1.85;;
8139;SDS011;4111;50.972;7.072;2023-08-31T14:54:17;2.03;;;1.80;;
8139;SDS011;4111;50.972;7.072;2023-08-31T14:56:44;4.32;;;1.88;;
8139;SDS011;4111;50.972;7.072;2023-08-31T14:59:10;3.50;;;2.03;;
8139;SDS011;4111;50.972;7.072;2023-08-31T15:01:37;4.53;;;2.22;;
8139;SDS011;4111;50.972;7.072;2023-08-31T15:04:04;6.55;;;2.03;;
8139;SDS011;4111;50.972;7.072;2023-08-31T15:06:31;3.88;;;2.15;;
8139;SDS011;4111;50.972;7.072;2023-08-31T15:08:59;3.58;;;1.90;;
8139;SDS011;4111;50.972;7.072;2023-08-31T15:11:26;4.53;;;2.03;;
8139;SDS011;4111;50.972;7.072;2023-08-31T15:13:53;4.10;;;2.00;;
8139;SDS011;4111;50.972;7.072;2023-08-31T15:16:20;5.75;;;2.08;;
8139;SDS011;4111;50.972;7.072;2023-08-31T15:18:47;4.50;;;2.05;;
8139;SDS011;4111;50.972;7.072;2023-08-31T15:21:14;2.25;;;1.92;;
8139;SDS011;4111;50.972;7.072;2023-08-31T15:23:43;1.85;;;1.70;;
8139;SDS011;4111;50.972;7.072;2023-08-31T15:26:10;3.53;;;1.98;;
8139;SDS011;4111;50.972;7.072;2023-08-31T15:28:39;2.17;;;1.90;;
8139;SDS011;4111;50.972;7.072;2023-08-31T15:31:06;7.00;;;2.10;;
8139;SDS011;4111;50.972;7.072;2023-08-31T15:33:32;3.00;;;2.10;;
8139;SDS011;4111;50.972;7.072;2023-08-31T15:36:03;2.47;;;2.00;;
8139;SDS011;4111;50.972;7.072;2023-08-31T15:38:33;4.60;;;1.70;;
8139;SDS011;4111;50.972;7.072;2023-08-31T15:41:01;6.00;;;2.90;;
8139;SDS011;4111;50.972;7.072;2023-08-31T15:43:30;3.53;;;1.70;;